Time;durP1;ratioP1;P1;durP2;ratioP2;P2;SDS_P1;SDS_P2;PMS_P1;PMS_P2;Temp;Humidity;BMP_temperature;BMP_pressure;BME280_temperature;BME280_humidity;BME280_pressure;Samples;Min_cycle;Max_cycle;Signal;HPM_P1;HPM_P2
2023/04/01 00:00:08;;;;;;;1.10;0.52;;;12.10;87.00;;;;;;5050656;28;20087;-67
2023/04/01 00:02:33;;;;;;;0.85;0.60;;;12.20;86.90;;;;;;5050260;28;20113;-66
2023/04/01 00:04:59;;;;;;;0.90;0.57;;;12.20;86.80;;;;;;5046354;28;20112;-62
2023/04/01 00:07:25;;;;;;;1.13;0.70;;;12.10;86.80;;;;;;5044025;28;20028;-68
2023/04/01 00:09:51;;;;;;;1.02;0.80;;;12.10;86.90;;;;;;5054124;28;20461;-67
2023/04/01 00:12:16;;;;;;;0.40;0.40;;;12.10;86.90;;;;;;5052413;28;20044;-68
2023/04/01 00:14:42;;;;;;;2.58;0.80;;;12.10;87.00;;;;;;5052476;28;20556;-64
2023/04/01 00:17:08;;;;;;;0.60;0.50;;;12.10;87.00;;;;;;5043764;28;20033;-64
2023/04/01 00:19:34;;;;;;;1.77;0.52;;;12.10;86.90;;;;;;5046181;28;20090;-63
2023/04/01 00:21:59;;;;;;;1.40;0.95;;;12.10;86.90;;;;;;5047398;28;20029;-63
2023/04/01 00:24:25;;;;;;;2.30;0.85;;;12.10;87.10;;;;;;5051087;28;20490;-63
2023/04/01 00:26:51;;;;;;;0.82;0.70;;;12.10;87.20;;;;;;5050415;28;20074;-64
2023/04/01 00:29:16;;;;;;;0.47;0.40;;;12.10;87.40;;;;;;5032152;28;20039;-65
2023/04/01 00:31:42;;;;;;;0.77;0.60;;;12.00;87.40;;;;;;5050013;28;20025;-64
2023/04/01 00:34:08;;;;;;;0.80;0.50;;;12.00;87.50;;;;;;5047374;28;20032;-64
2023/04/01 00:36:33;;;;;;;1.30;1.05;;;12.00;87.40;;;;;;5054841;28;20093;-64
2023/04/01 00:39:00;;;;;;;0.70;0.60;;;12.00;87.40;;;;;;5042941;28;20537;-64
2023/04/01 00:41:26;;;;;;;1.20;1.00;;;12.00;87.50;;;;;;5052315;28;20045;-63
2023/04/01 00:43:52;;;;;;;2.38;0.85;;;12.00;88.10;;;;;;5048711;28;20033;-64
2023/04/01 00:46:18;;;;;;;3.13;0.52;;;12.00;87.50;;;;;;5045935;28;20140;-64
2023/04/01 00:48:48;;;;;;;1.58;0.85;;;12.10;87.50;;;;;;5042515;28;20030;-64
2023/04/01 00:51:18;;;;;;;0.85;0.60;;;12.10;87.40;;;;;;5050750;28;20028;-64
2023/04/01 00:53:49;;;;;;;1.85;0.63;;;12.10;87.50;;;;;;5051365;28;20039;-65
2023/04/01 00:56:25;;;;;;;0.75;0.70;;;12.10;87.40;;;;;;5044979;28;20025;-64
2023/04/01 00:59:13;;;;;;;1.02;0.55;;;12.10;87.50;;;;;;5046736;28;20052;-64
2023/04/01 01:01:39;;;;;;;1.60;0.60;;;12.10;87.30;;;;;;5044897;28;20029;-64
2023/04/01 01:04:05;;;;;;;1.75;0.85;;;12.10;87.30;;;;;;5046504;28;20041;-64
2023/04/01 01:06:54;;;;;;;1.67;0.80;;;12.10;87.20;;;;;;5049163;28;20502;-64
2023/04/01 01:09:31;;;;;;;3.30;1.35;;;12.20;87.30;;;;;;5040495;28;20396;-67
2023/04/01 01:12:25;;;;;;;0.65;0.65;;;12.20;87.20;;;;;;5049303;28;20045;-67
2023/04/01 01:15:24;;;;;;;1.25;1.10;;;12.20;87.20;;;;;;5045809;28;20029;-64
2023/04/01 01:17:56;;;;;;;3.50;1.38;;;12.20;87.10;;;;;;5046454;28;20403;-64
2023/04/01 01:20:29;;;;;;;3.27;2.33;;;12.10;87.30;;;;;;5037766;28;20483;-64
2023/04/01 01:23:13;;;;;;;2.40;1.75;;;12.10;87.50;;;;;;5039175;28;20389;-64
2023/04/01 01:25:50;;;;;;;1.80;1.20;;;12.10;87.50;;;;;;5041211;28;20021;-63
2023/04/01 01:28:44;;;;;;;1.73;1.38;;;12.20;87.40;;;;;;5037494;28;20045;-64
2023/04/01 01:31:41;;;;;;;3.45;1.65;;;12.20;87.30;;;;;;5042569;28;20064;-63
2023/04/01 01:34:10;;;;;;;4.88;2.47;;;12.20;87.30;;;;;;5046359;28;20051;-65
2023/04/01 01:36:37;;;;;;;1.85;1.40;;;12.10;87.50;;;;;;5049679;28;20021;-67
2023/04/01 01:39:07;;;;;;;3.35;1.95;;;12.10;87.50;;;;;;5047053;28;20020;-65
2023/04/01 01:41:35;;;;;;;3.28;2.08;;;12.20;87.60;;;;;;5048815;28;20033;-68
2023/04/01 01:44:03;;;;;;;2.42;1.60;;;12.10;87.60;;;;;;5049776;28;20028;-67
2023/04/01 01:46:30;;;;;;;4.65;1.88;;;12.10;87.60;;;;;;5032568;28;20056;-67
2023/04/01 01:48:58;;;;;;;6.38;2.47;;;12.10;87.70;;;;;;5052129;28;20025;-67
2023/04/01 01:51:26;;;;;;;4.78;2.70;;;12.10;87.90;;;;;;5052405;28;20033;-67
2023/04/01 01:53:52;;;;;;;2.50;1.85;;;12.10;88.00;;;;;;5052198;28;20484;-67
2023/04/01 01:56:24;;;;;;;2.28;1.85;;;12.10;88.10;;;;;;5052215;28;20144;-68
2023/04/01 01:58:56;;;;;;;;;;;12.10;88.20;;;;;;5052379;28;20029;-68
2023/04/01 02:01:30;;;;;;;4.27;1.77;;;12.10;88.30;;;;;;5049348;28;19916;-68
2023/04/01 02:03:57;;;;;;;1.95;1.48;;;12.00;88.20;;;;;;5048973;28;20714;-65
2023/04/01 02:06:26;;;;;;;2.97;1.75;;;12.10;88.20;;;;;;5047001;28;20104;-65
2023/04/01 02:08:55;;;;;;;4.03;1.92;;;12.00;88.20;;;;;;5047570;28;20024;-64
2023/04/01 02:11:38;;;;;;;2.42;1.63;;;12.00;88.30;;;;;;5048347;28;20037;-64
2023/04/01 02:14:25;;;;;;;3.38;1.77;;;12.00;88.40;;;;;;5048329;28;20079;-67
2023/04/01 02:16:57;;;;;;;6.35;2.33;;;12.00;88.40;;;;;;5051514;28;20108;-68
2023/04/01 02:19:49;;;;;;;4.78;2.20;;;11.90;88.50;;;;;;5051912;28;20472;-67
2023/04/01 02:22:21;;;;;;;3.25;2.17;;;11.90;88.50;;;;;;5040435;28;20030;-64
2023/04/01 02:24:49;;;;;;;2.33;1.60;;;11.80;89.30;;;;;;5047341;28;20044;-64
2023/04/01 02:27:15;;;;;;;1.88;1.50;;;11.80;88.70;;;;;;5043993;28;20038;-64
2023/04/01 02:29:41;;;;;;;5.15;2.13;;;11.90;88.60;;;;;;5047142;28;20029;-67
2023/04/01 02:32:09;;;;;;;2.08;1.33;;;11.90;89.10;;;;;;5052060;28;20021;-67
2023/04/01 02:34:35;;;;;;;4.50;1.92;;;11.90;88.50;;;;;;5051830;28;20035;-67
2023/04/01 02:37:01;;;;;;;2.47;1.15;;;11.90;88.60;;;;;;5040662;28;20041;-68
2023/04/01 02:39:27;;;;;;;2.10;1.40;;;11.90;88.50;;;;;;5054458;28;20048;-67
2023/04/01 02:41:53;;;;;;;3.63;1.35;;;11.90;88.40;;;;;;5054851;28;20024;-66
2023/04/01 02:44:19;;;;;;;4.00;1.20;;;11.90;88.30;;;;;;5056020;28;20025;-67
2023/04/01 02:46:45;;;;;;;3.25;1.35;;;12.00;88.30;;;;;;5052862;28;20029;-68
2023/04/01 02:49:11;;;;;;;2.15;1.45;;;11.90;88.30;;;;;;5055528;28;20078;-68
2023/04/01 02:51:37;;;;;;;2.08;1.38;;;11.90;88.30;;;;;;5052999;28;20104;-65
2023/04/01 02:54:03;;;;;;;4.15;1.83;;;11.90;88.30;;;;;;5049045;28;21455;-64
2023/04/01 02:56:29;;;;;;;1.70;1.60;;;11.90;88.40;;;;;;5049542;28;20132;-64
2023/04/01 02:58:55;;;;;;;3.15;1.80;;;11.80;88.50;;;;;;5049557;28;20147;-64
2023/04/01 03:01:21;;;;;;;1.67;1.25;;;11.80;88.50;;;;;;5050452;28;20227;-64
2023/04/01 03:03:47;;;;;;;2.28;0.80;;;11.80;88.50;;;;;;5047850;28;20036;-63
2023/04/01 03:06:15;;;;;;;5.60;1.40;;;11.80;88.50;;;;;;5048064;28;20380;-67
2023/04/01 03:08:41;;;;;;;3.13;0.90;;;11.80;88.60;;;;;;5055233;28;20024;-68
2023/04/01 03:11:07;;;;;;;1.88;1.30;;;11.80;88.60;;;;;;5053910;28;20078;-67
2023/04/01 03:13:33;;;;;;;1.77;1.05;;;11.80;88.60;;;;;;5053634;28;20021;-67
2023/04/01 03:15:58;;;;;;;1.35;1.05;;;11.80;88.50;;;;;;5051424;28;20037;-67
2023/04/01 03:18:24;;;;;;;1.55;1.10;;;11.80;88.50;;;;;;5045534;28;20029;-67
2023/04/01 03:20:50;;;;;;;1.98;0.88;;;11.80;88.40;;;;;;5059553;28;20466;-67
2023/04/01 03:23:19;;;;;;;1.45;0.95;;;11.80;88.40;;;;;;5053806;28;20135;-68
2023/04/01 03:25:45;;;;;;;2.90;1.15;;;11.80;88.50;;;;;;5053755;28;20041;-67
2023/04/01 03:28:10;;;;;;;1.35;0.90;;;11.80;88.60;;;;;;5049453;28;20021;-63
2023/04/01 03:30:36;;;;;;;2.92;1.15;;;11.80;89.10;;;;;;5049784;28;20035;-64
2023/04/01 03:33:02;;;;;;;2.10;1.20;;;11.80;88.60;;;;;;5040075;28;20076;-65
2023/04/01 03:35:28;;;;;;;1.55;0.90;;;11.70;88.60;;;;;;5051494;28;20452;-64
2023/04/01 03:37:54;;;;;;;1.42;1.05;;;11.70;88.70;;;;;;5053530;28;20048;-68
2023/04/01 03:40:20;;;;;;;1.65;1.08;;;11.70;88.80;;;;;;5049334;28;20034;-64
2023/04/01 03:42:46;;;;;;;3.80;1.60;;;11.70;88.70;;;;;;5047477;28;20043;-63
2023/04/01 03:45:12;;;;;;;1.75;1.23;;;11.70;88.70;;;;;;5040425;28;20108;-64
2023/04/01 03:47:39;;;;;;;1.33;0.88;;;11.70;88.70;;;;;;5046959;28;20082;-64
2023/04/01 03:50:06;;;;;;;2.17;1.00;;;11.70;89.20;;;;;;5047238;28;20075;-64
2023/04/01 03:52:32;;;;;;;2.00;1.00;;;11.70;88.70;;;;;;5043728;28;20050;-63
2023/04/01 03:54:57;;;;;;;1.67;0.90;;;11.60;88.70;;;;;;5047074;28;20068;-68
2023/04/01 03:57:23;;;;;;;1.73;1.20;;;11.60;88.80;;;;;;5054546;28;20029;-68
2023/04/01 03:59:49;;;;;;;1.90;1.20;;;11.60;88.90;;;;;;5053149;28;20037;-67
2023/04/01 04:02:14;;;;;;;1.65;1.23;;;11.60;88.80;;;;;;5054424;28;20028;-68
2023/04/01 04:04:40;;;;;;;1.02;0.88;;;11.60;88.90;;;;;;5053610;28;20033;-64
2023/04/01 04:07:07;;;;;;;1.60;1.35;;;11.60;88.90;;;;;;5048377;28;20384;-66
2023/04/01 04:09:33;;;;;;;2.25;1.52;;;11.60;88.80;;;;;;5034499;28;20025;-64
2023/04/01 04:12:00;;;;;;;1.70;1.40;;;11.60;88.70;;;;;;5041915;28;20049;-65
2023/04/01 04:14:25;;;;;;;2.20;1.48;;;11.60;88.70;;;;;;5035251;28;20033;-63
2023/04/01 04:16:51;;;;;;;2.65;1.40;;;11.60;88.90;;;;;;5044964;28;20033;-64
2023/04/01 04:19:17;;;;;;;3.38;1.30;;;11.60;88.90;;;;;;5056912;28;20033;-67
2023/04/01 04:21:42;;;;;;;1.30;0.98;;;11.60;88.90;;;;;;5053721;28;20025;-67
2023/04/01 04:24:09;;;;;;;1.45;0.93;;;11.60;89.00;;;;;;5052382;28;20029;-67
2023/04/01 04:26:35;;;;;;;1.10;0.90;;;11.60;88.80;;;;;;5045243;28;20115;-67
2023/04/01 04:29:01;;;;;;;1.15;0.82;;;11.60;88.70;;;;;;5045426;28;20064;-67
2023/04/01 04:31:27;;;;;;;2.67;1.02;;;11.70;88.70;;;;;;5050453;28;20021;-67
2023/04/01 04:33:53;;;;;;;1.85;1.10;;;11.60;88.60;;;;;;5053690;28;20021;-68
2023/04/01 04:36:19;;;;;;;2.15;1.58;;;11.70;88.60;;;;;;5052622;28;20157;-67
2023/04/01 04:38:45;;;;;;;2.22;1.55;;;11.60;88.60;;;;;;5052925;28;20029;-67
2023/04/01 04:41:17;;;;;;;1.83;1.60;;;11.70;88.70;;;;;;5052016;28;20025;-65
2023/04/01 04:43:53;;;;;;;2.60;1.15;;;11.70;88.60;;;;;;5043106;28;20033;-64
2023/04/01 04:46:19;;;;;;;3.08;1.85;;;11.70;88.60;;;;;;5050988;28;20051;-64
2023/04/01 04:48:45;;;;;;;1.70;1.50;;;11.60;88.50;;;;;;5049384;28;20033;-68
2023/04/01 04:51:16;;;;;;;2.40;1.35;;;11.60;88.60;;;;;;5052698;28;20017;-67
2023/04/01 04:53:42;;;;;;;1.85;1.23;;;11.60;88.60;;;;;;5051526;28;20033;-68
2023/04/01 04:56:07;;;;;;;2.25;1.48;;;11.60;88.60;;;;;;5053466;28;20103;-67
2023/04/01 04:58:33;;;;;;;1.52;1.30;;;11.60;88.70;;;;;;5050330;28;20029;-64
2023/04/01 05:01:05;;;;;;;1.98;1.40;;;11.60;88.60;;;;;;5038283;28;20056;-63
2023/04/01 05:03:30;;;;;;;1.20;1.00;;;11.70;88.70;;;;;;5048755;28;20021;-65
2023/04/01 05:05:56;;;;;;;2.03;1.13;;;11.70;88.40;;;;;;5048134;28;20031;-64
2023/04/01 05:08:22;;;;;;;1.80;1.48;;;11.70;88.40;;;;;;5050071;28;20075;-65
2023/04/01 05:10:47;;;;;;;1.92;1.40;;;11.70;88.40;;;;;;5043288;28;20037;-67
2023/04/01 05:13:13;;;;;;;1.55;1.00;;;11.70;88.40;;;;;;5053067;28;20065;-67
2023/04/01 05:15:39;;;;;;;1.55;1.17;;;11.70;88.40;;;;;;5053079;28;20033;-68
2023/04/01 05:18:05;;;;;;;1.27;0.90;;;11.70;88.30;;;;;;5051224;28;20041;-63
2023/04/01 05:20:31;;;;;;;1.85;1.20;;;11.80;88.30;;;;;;5046337;28;20041;-64
2023/04/01 05:22:57;;;;;;;1.88;1.00;;;11.80;88.30;;;;;;5047197;28;20112;-64
2023/04/01 05:25:23;;;;;;;1.20;1.10;;;11.80;88.20;;;;;;5043656;28;20042;-64
2023/04/01 05:27:49;;;;;;;2.60;1.42;;;11.80;88.10;;;;;;5036792;28;20035;-64
2023/04/01 05:30:15;;;;;;;2.08;1.05;;;11.80;88.00;;;;;;5042395;28;20048;-64
2023/04/01 05:32:41;;;;;;;1.10;0.88;;;11.90;88.10;;;;;;5036865;28;20064;-63
2023/04/01 05:35:07;;;;;;;1.17;0.80;;;11.90;88.00;;;;;;5044906;28;20358;-63
2023/04/01 05:37:36;;;;;;;0.70;0.70;;;11.90;87.90;;;;;;5049890;28;20385;-64
2023/04/01 05:40:02;;;;;;;0.73;0.65;;;11.90;87.90;;;;;;5047018;28;20033;-64
2023/04/01 05:42:27;;;;;;;1.05;0.60;;;11.90;87.90;;;;;;5045061;28;20049;-67
2023/04/01 05:44:53;;;;;;;0.73;0.70;;;11.90;87.80;;;;;;5047153;28;20624;-68
2023/04/01 05:47:19;;;;;;;1.85;0.73;;;12.00;88.40;;;;;;5046884;28;20131;-63
2023/04/01 05:49:45;;;;;;;1.33;0.90;;;11.90;87.70;;;;;;5041561;28;20357;-66
2023/04/01 05:52:10;;;;;;;2.22;0.90;;;11.90;87.80;;;;;;5045319;28;20481;-67
2023/04/01 05:54:36;;;;;;;1.00;0.85;;;11.90;87.90;;;;;;5051923;28;20466;-67
2023/04/01 05:57:02;;;;;;;1.05;0.85;;;11.90;87.90;;;;;;5051665;28;20032;-64
2023/04/01 05:59:28;;;;;;;0.73;0.70;;;11.90;87.90;;;;;;5047141;28;20040;-64
2023/04/01 06:01:53;;;;;;;1.20;0.82;;;11.90;87.80;;;;;;5027165;28;20128;-68
2023/04/01 06:04:19;;;;;;;2.47;1.20;;;11.90;87.70;;;;;;5051894;28;20029;-67
2023/04/01 06:06:45;;;;;;;2.75;1.25;;;12.00;87.70;;;;;;5051595;28;20736;-67
2023/04/01 06:09:15;;;;;;;1.67;1.10;;;12.00;87.60;;;;;;5042621;28;20029;-67
2023/04/01 06:11:59;;;;;;;4.70;1.73;;;12.00;87.50;;;;;;5051649;28;20041;-68
2023/04/01 06:14:40;;;;;;;3.28;2.10;;;12.00;87.60;;;;;;5055823;28;20028;-66
2023/04/01 06:17:41;;;;;;;4.07;2.58;;;11.90;87.70;;;;;;5052464;28;20120;-64
2023/04/01 06:20:09;;;;;;;4.05;2.00;;;11.90;87.60;;;;;;5046287;28;20032;-63
2023/04/01 06:23:01;;;;;;;3.78;2.13;;;11.90;87.70;;;;;;5039018;28;20026;-64
2023/04/01 06:25:38;;;;;;;5.03;2.97;;;12.00;87.70;;;;;;5038580;28;20060;-65
2023/04/01 06:28:36;;;;;;;4.40;2.70;;;11.90;87.60;;;;;;5052173;28;20476;-67
2023/04/01 06:31:23;;;;;;;4.40;2.35;;;12.00;87.60;;;;;;5045658;28;20055;-67
2023/04/01 06:33:55;;;;;;;4.03;2.53;;;12.00;87.60;;;;;;5039356;28;20056;-64
2023/04/01 06:36:36;;;;;;;3.57;2.50;;;12.00;87.60;;;;;;5045570;28;20031;-64
2023/04/01 06:39:27;;;;;;;8.02;3.83;;;12.00;87.50;;;;;;5040557;28;20371;-65
2023/04/01 06:41:59;;;;;;;6.50;2.95;;;12.00;87.40;;;;;;5049678;28;20041;-63
2023/04/01 06:44:39;;;;;;;5.80;3.05;;;12.00;87.50;;;;;;5051719;28;20112;-64
2023/04/01 06:47:28;;;;;;;4.38;3.00;;;12.10;87.50;;;;;;5053572;28;20033;-68
2023/04/01 06:50:32;;;;;;;3.85;2.08;;;12.10;87.50;;;;;;5055228;28;20104;-68
2023/04/01 06:53:04;;;;;;;6.07;3.00;;;12.10;87.40;;;;;;5043245;28;20532;-68
2023/04/01 06:55:55;;;;;;;4.70;2.42;;;12.20;87.40;;;;;;5054421;28;20028;-68
2023/04/01 06:58:28;;;;;;;4.18;2.00;;;12.20;87.20;;;;;;5037978;28;20095;-67
2023/04/01 07:00:58;;;;;;;5.88;2.88;;;12.30;87.20;;;;;;5054940;28;20484;-63
2023/04/01 07:03:56;;;;;;;5.40;1.90;;;12.40;87.10;;;;;;5050195;28;20043;-64
2023/04/01 07:06:36;;;;;;;3.55;2.22;;;12.40;86.90;;;;;;5024985;28;20570;-64
2023/04/01 07:09:08;;;;;;;6.30;2.63;;;12.40;86.80;;;;;;5045543;28;20078;-64
2023/04/01 07:11:37;;;;;;;3.42;2.03;;;12.40;86.90;;;;;;5036943;28;20057;-68
2023/04/01 07:14:06;;;;;;;3.55;2.00;;;12.40;86.90;;;;;;5053500;28;20534;-65
2023/04/01 07:16:32;;;;;;;4.53;2.33;;;12.50;86.90;;;;;;5043847;28;20021;-64
2023/04/01 07:19:06;;;;;;;2.72;1.80;;;12.50;86.80;;;;;;5038114;28;20495;-64
2023/04/01 07:21:41;;;;;;;5.40;1.90;;;12.50;86.80;;;;;;5050073;28;20032;-64
2023/04/01 07:24:17;;;;;;;2.85;1.98;;;12.50;86.80;;;;;;5038461;28;20032;-64
2023/04/01 07:26:43;;;;;;;3.83;1.83;;;12.60;86.90;;;;;;5050327;28;20025;-65
2023/04/01 07:29:14;;;;;;;3.10;1.77;;;12.60;86.90;;;;;;5047041;28;20036;-65
2023/04/01 07:31:55;;;;;;;1.85;1.45;;;12.60;87.00;;;;;;5050081;28;20048;-64
2023/04/01 07:34:33;;;;;;;2.40;1.73;;;12.60;86.80;;;;;;5047653;28;20050;-64
2023/04/01 07:37:10;;;;;;;4.55;1.92;;;12.60;86.90;;;;;;5046552;28;20115;-65
2023/04/01 07:40:05;;;;;;;2.47;1.00;;;12.70;86.90;;;;;;5051269;28;20468;-66
2023/04/01 07:42:48;;;;;;;2.08;1.25;;;12.70;86.80;;;;;;5050386;28;20109;-65
2023/04/01 07:45:29;;;;;;;1.60;1.23;;;12.80;86.70;;;;;;5046143;28;20028;-65
2023/04/01 07:48:18;;;;;;;4.50;1.30;;;12.80;86.60;;;;;;5051700;28;20033;-67
2023/04/01 07:51:02;;;;;;;1.80;1.20;;;12.90;86.60;;;;;;5047122;28;20021;-64
2023/04/01 07:53:46;;;;;;;1.00;0.77;;;12.90;86.60;;;;;;5042489;28;20029;-66
2023/04/01 07:56:51;;;;;;;1.10;0.77;;;13.00;86.60;;;;;;5048708;28;20083;-66
2023/04/01 07:59:36;;;;;;;1.70;1.00;;;13.00;86.50;;;;;;5047234;28;20090;-65
2023/04/01 08:02:01;;;;;;;0.93;0.60;;;12.90;86.70;;;;;;5045231;28;20036;-66
2023/04/01 08:04:42;;;;;;;0.45;0.45;;;12.90;86.90;;;;;;5047158;28;20029;-65
2023/04/01 08:07:23;;;;;;;1.33;0.70;;;12.90;86.90;;;;;;5042107;28;20464;-65
2023/04/01 08:10:02;;;;;;;1.30;0.82;;;12.90;86.90;;;;;;5047401;28;20491;-63
2023/04/01 08:13:02;;;;;;;2.60;0.98;;;13.00;87.00;;;;;;5048919;28;20024;-63
2023/04/01 08:15:47;;;;;;;2.92;1.33;;;13.00;86.90;;;;;;5049109;28;20041;-64
2023/04/01 08:18:18;;;;;;;2.17;1.13;;;13.00;86.80;;;;;;5051272;28;20037;-64
2023/04/01 08:21:00;;;;;;;1.50;1.23;;;13.00;86.90;;;;;;5050881;28;20021;-63
2023/04/01 08:23:30;;;;;;;1.70;1.00;;;13.00;86.90;;;;;;5045751;28;20028;-64
2023/04/01 08:26:14;;;;;;;1.42;0.85;;;13.00;87.00;;;;;;5046034;28;20049;-63
2023/04/01 08:28:52;;;;;;;1.42;0.70;;;13.00;86.90;;;;;;5042719;28;20494;-64
2023/04/01 08:31:33;;;;;;;0.98;0.73;;;13.10;86.90;;;;;;5049436;28;20017;-66
2023/04/01 08:34:02;;;;;;;1.65;0.90;;;13.10;86.80;;;;;;5050730;28;20433;-66
2023/04/01 08:36:36;;;;;;;1.75;1.20;;;13.20;86.70;;;;;;5042306;28;20417;-66
2023/04/01 08:39:04;;;;;;;1.60;0.95;;;13.20;86.70;;;;;;5050742;28;20017;-64
2023/04/01 08:41:39;;;;;;;1.10;0.95;;;13.30;86.60;;;;;;5048344;28;20037;-64
2023/04/01 08:44:27;;;;;;;1.88;1.08;;;13.30;86.60;;;;;;5041079;28;20041;-67
2023/04/01 08:47:30;;;;;;;0.68;0.55;;;13.50;86.60;;;;;;5036082;28;20039;-67
2023/04/01 08:50:20;;;;;;;1.60;0.85;;;13.50;86.40;;;;;;5038838;28;20029;-64
2023/04/01 08:53:00;;;;;;;1.83;1.08;;;13.50;86.40;;;;;;5035949;28;20027;-66
2023/04/01 08:55:37;;;;;;;1.10;0.43;;;13.50;86.50;;;;;;5040930;28;20040;-66
2023/04/01 08:58:06;;;;;;;0.35;0.35;;;13.40;86.60;;;;;;5040010;28;20484;-67
2023/04/01 09:00:33;;;;;;;0.47;0.47;;;13.40;86.80;;;;;;5042528;28;20104;-67
2023/04/01 09:03:08;;;;;;;0.52;0.40;;;13.40;86.70;;;;;;5046871;28;20067;-66
2023/04/01 09:05:39;;;;;;;0.40;0.40;;;13.50;86.70;;;;;;5044945;28;20033;-67
2023/04/01 09:08:55;;;;;;;0.30;0.30;;;13.50;86.50;;;;;;5040504;28;20481;-67
2023/04/01 09:11:46;;;;;;;0.32;0.20;;;13.50;86.40;;;;;;5029731;28;20115;-66
2023/04/01 09:14:24;;;;;;;0.30;0.20;;;13.40;86.60;;;;;;5042943;28;20031;-66
2023/04/01 09:17:31;;;;;;;0.20;0.20;;;13.30;86.80;;;;;;5047628;28;20037;-67
2023/04/01 09:20:34;;;;;;;0.85;0.30;;;13.40;86.80;;;;;;5046206;28;20024;-65
2023/04/01 09:23:15;;;;;;;0.20;0.20;;;13.40;86.80;;;;;;5047164;28;20067;-64
2023/04/01 09:26:08;;;;;;;0.28;0.20;;;13.40;86.90;;;;;;5046292;28;20017;-65
2023/04/01 09:29:02;;;;;;;0.85;0.28;;;13.50;86.80;;;;;;5045077;28;20765;-64
2023/04/01 09:31:58;;;;;;;1.33;0.10;;;13.40;86.80;;;;;;5046422;28;20021;-64
2023/04/01 09:35:11;;;;;;;0.50;0.40;;;13.50;87.00;;;;;;5044018;28;20464;-63
2023/04/01 09:37:46;;;;;;;0.75;0.35;;;13.40;86.80;;;;;;5040232;28;20023;-63
2023/04/01 09:40:12;;;;;;;0.28;0.28;;;13.40;86.90;;;;;;5046337;28;20025;-63
2023/04/01 09:43:04;;;;;;;0.40;0.40;;;13.50;86.90;;;;;;5044151;28;20075;-66
2023/04/01 09:45:59;;;;;;;0.20;0.20;;;13.60;86.90;;;;;;5048283;28;20035;-66
2023/04/01 09:48:27;;;;;;;0.35;0.30;;;13.70;86.70;;;;;;5045854;28;20033;-63
2023/04/01 09:51:05;;;;;;;0.30;0.30;;;13.60;86.50;;;;;;5048826;28;20021;-62
2023/04/01 09:54:05;;;;;;;0.50;0.35;;;13.60;86.50;;;;;;5049638;28;20408;-63
2023/04/01 09:56:52;;;;;;;0.40;0.40;;;13.50;86.40;;;;;;5045626;28;20059;-66
2023/04/01 09:59:55;;;;;;;0.50;0.50;;;13.30;86.70;;;;;;5047801;28;20462;-66
2023/04/01 10:02:42;;;;;;;0.28;0.28;;;13.30;86.90;;;;;;5049153;28;20029;-66
2023/04/01 10:05:42;;;;;;;0.70;0.70;;;13.20;87.00;;;;;;5049572;28;20029;-66
2023/04/01 10:08:33;;;;;;;5.05;0.70;;;13.20;87.10;;;;;;5047602;28;20025;-67
2023/04/01 10:11:01;;;;;;;0.20;0.20;;;13.10;87.20;;;;;;5038707;28;20479;-66
2023/04/01 10:13:39;;;;;;;0.50;0.45;;;13.10;87.20;;;;;;5049201;28;20082;-66
2023/04/01 10:16:16;;;;;;;0.70;0.40;;;13.10;87.30;;;;;;5046054;28;20090;-66
2023/04/01 10:19:11;;;;;;;0.57;0.45;;;13.20;87.30;;;;;;5048266;28;20036;-67
2023/04/01 10:22:00;;;;;;;0.73;0.55;;;13.20;87.20;;;;;;5037582;28;20029;-64
2023/04/01 10:24:39;;;;;;;0.55;0.43;;;13.20;87.10;;;;;;5042675;28;20040;-63
2023/04/01 10:27:42;;;;;;;1.02;0.70;;;13.20;87.20;;;;;;5052844;28;20032;-66
2023/04/01 10:30:07;;;;;;;1.05;0.70;;;13.30;87.10;;;;;;5047055;28;20036;-63
2023/04/01 10:33:06;;;;;;;0.50;0.50;;;13.20;87.20;;;;;;5043002;28;20037;-63
2023/04/01 10:36:08;;;;;;;1.38;1.00;;;13.20;87.10;;;;;;5047243;28;20456;-63
2023/04/01 10:38:56;;;;;;;1.13;0.70;;;13.30;87.10;;;;;;5039784;28;20029;-64
2023/04/01 10:41:42;;;;;;;4.43;1.15;;;13.30;87.10;;;;;;5042245;28;20472;-63
2023/04/01 10:44:25;;;;;;;1.60;0.98;;;13.40;87.00;;;;;;5035292;28;20120;-66
2023/04/01 10:47:18;;;;;;;0.80;0.63;;;13.40;87.00;;;;;;5044215;28;20030;-67
2023/04/01 10:50:02;;;;;;;1.40;0.63;;;13.50;87.00;;;;;;5044717;28;20048;-67
2023/04/01 10:53:14;;;;;;;1.20;1.00;;;13.70;86.90;;;;;;5043455;28;20037;-67
2023/04/01 10:56:04;;;;;;;1.23;0.95;;;13.90;86.50;;;;;;5043221;28;20032;-66
2023/04/01 10:59:07;;;;;;;1.38;1.02;;;13.90;86.10;;;;;;5054013;28;20482;-67
2023/04/01 11:01:42;;;;;;;1.17;0.82;;;13.90;86.20;;;;;;5046726;28;20029;-67
2023/04/01 11:04:46;;;;;;;1.02;0.75;;;13.80;86.20;;;;;;5047764;28;20151;-67
2023/04/01 11:07:36;;;;;;;1.08;0.68;;;13.70;86.10;;;;;;5049226;28;20052;-63
2023/04/01 11:10:38;;;;;;;0.60;0.60;;;13.70;86.60;;;;;;5046209;28;20365;-63
2023/04/01 11:13:19;;;;;;;0.60;0.57;;;13.70;86.60;;;;;;5040397;28;20507;-68
2023/04/01 11:16:10;;;;;;;0.75;0.68;;;13.60;86.70;;;;;;5043986;28;20018;-68
2023/04/01 11:18:59;;;;;;;2.53;0.65;;;13.70;86.70;;;;;;5048070;28;20476;-66
2023/04/01 11:22:09;;;;;;;1.38;0.65;;;13.80;86.60;;;;;;5045477;28;20095;-67
2023/04/01 11:24:57;;;;;;;1.17;0.80;;;13.80;86.30;;;;;;5050170;28;20032;-66
2023/04/01 11:27:42;;;;;;;0.98;0.60;;;13.90;86.20;;;;;;5045388;28;20071;-67
2023/04/01 11:30:26;;;;;;;0.38;0.38;;;13.90;86.00;;;;;;5038803;28;20029;-66
2023/04/01 11:33:41;;;;;;;0.40;0.20;;;13.90;85.80;;;;;;5033915;28;20033;-66
2023/04/01 11:36:47;;;;;;;0.88;0.50;;;13.70;85.70;;;;;;5001337;28;20029;-64
2023/04/01 11:39:36;;;;;;;0.45;0.20;;;13.60;86.10;;;;;;5002488;28;20041;-64
2023/04/01 11:42:20;;;;;;;0.17;0.17;;;13.50;86.80;;;;;;5034349;28;20110;-64
2023/04/01 11:45:33;;;;;;;0.20;0.20;;;13.30;86.50;;;;;;5046250;28;20536;-63
2023/04/01 11:48:07;;;;;;;;;;;13.30;86.60;;;;;;5022547;28;20045;-63
2023/04/01 11:50:59;;;;;;;0.20;0.17;;;13.30;86.90;;;;;;5040175;28;19912;-64
2023/04/01 11:53:54;;;;;;;0.30;0.30;;;13.30;86.80;;;;;;5041980;28;20047;-63
2023/04/01 11:56:47;;;;;;;0.30;0.30;;;13.30;86.80;;;;;;5044469;28;20495;-64
2023/04/01 12:00:03;;;;;;;0.68;0.22;;;13.20;86.90;;;;;;5035545;28;20378;-64
2023/04/01 12:02:47;;;;;;;0.25;0.20;;;13.20;86.90;;;;;;5026834;28;21108;-66
2023/04/01 12:05:29;;;;;;;0.20;0.20;;;13.20;87.20;;;;;;5043870;28;20037;-66
2023/04/01 12:08:05;;;;;;;1.55;0.17;;;13.30;87.50;;;;;;5046433;28;20025;-66
2023/04/01 12:10:55;;;;;;;5.47;0.20;;;13.30;87.40;;;;;;5044503;28;20372;-66
2023/04/01 12:13:39;;;;;;;0.75;0.20;;;13.30;87.60;;;;;;5043475;28;20037;-63
2023/04/01 12:16:31;;;;;;;0.25;0.20;;;13.20;87.70;;;;;;5045291;28;20859;-63
2023/04/01 12:19:01;;;;;;;0.55;0.20;;;13.30;87.70;;;;;;5048050;28;20043;-64
2023/04/01 12:21:35;;;;;;;0.20;0.20;;;13.30;87.70;;;;;;5054898;28;20088;-66
2023/04/01 12:24:20;;;;;;;1.13;0.30;;;13.30;87.60;;;;;;5051096;28;20032;-64
2023/04/01 12:27:11;;;;;;;0.30;0.30;;;13.30;87.60;;;;;;5045978;28;20021;-63
2023/04/01 12:29:45;;;;;;;0.20;0.20;;;13.40;88.20;;;;;;5041416;28;20034;-64
2023/04/01 12:32:24;;;;;;;0.30;0.30;;;13.30;87.60;;;;;;5043923;28;20159;-67
2023/04/01 12:35:02;;;;;;;0.45;0.45;;;13.40;87.60;;;;;;5046902;28;20024;-64
2023/04/01 12:37:36;;;;;;;1.75;0.40;;;13.40;87.70;;;;;;5047930;28;20391;-67
2023/04/01 12:40:29;;;;;;;0.38;0.38;;;13.50;87.60;;;;;;5045763;28;20059;-66
2023/04/01 12:43:10;;;;;;;0.77;0.50;;;13.60;87.40;;;;;;5049935;28;20048;-67
2023/04/01 12:45:58;;;;;;;15.38;0.77;;;13.50;87.40;;;;;;5047919;28;20116;-67
2023/04/01 12:48:55;;;;;;;0.52;0.40;;;13.60;87.50;;;;;;5044540;28;20068;-67
2023/04/01 12:51:27;;;;;;;0.82;0.38;;;13.60;87.50;;;;;;5050161;28;20020;-64
2023/04/01 12:54:17;;;;;;;0.50;0.40;;;13.60;87.50;;;;;;5044584;28;20056;-65
2023/04/01 12:57:05;;;;;;;0.98;0.60;;;13.70;87.30;;;;;;5040791;28;20029;-66
2023/04/01 12:59:36;;;;;;;0.32;0.30;;;13.70;87.30;;;;;;5049510;28;20448;-67
2023/04/01 13:02:17;;;;;;;1.05;0.68;;;13.80;87.30;;;;;;5051775;28;20040;-64
2023/04/01 13:05:14;;;;;;;0.40;0.40;;;13.80;87.20;;;;;;5048283;28;20033;-67
2023/04/01 13:08:01;;;;;;;0.30;0.30;;;13.90;87.10;;;;;;5050816;28;20084;-64
2023/04/01 13:10:31;;;;;;;2.65;0.60;;;13.90;86.90;;;;;;5045026;28;20052;-63
2023/04/01 13:13:02;;;;;;;0.20;0.20;;;13.90;87.00;;;;;;5047080;28;20044;-67
2023/04/01 13:15:40;;;;;;;1.02;0.57;;;13.90;87.00;;;;;;5046825;28;20127;-66
2023/04/01 13:18:15;;;;;;;0.80;0.30;;;13.90;86.80;;;;;;5049697;28;20021;-67
2023/04/01 13:20:59;;;;;;;0.30;0.30;;;13.90;86.90;;;;;;5043310;28;20017;-66
2023/04/01 13:23:51;;;;;;;0.30;0.30;;;14.00;87.00;;;;;;5044923;28;20130;-63
2023/04/01 13:26:52;;;;;;;0.73;0.40;;;14.10;86.90;;;;;;5047835;28;20037;-64
2023/04/01 13:29:25;;;;;;;0.38;0.38;;;14.10;86.90;;;;;;5038384;28;20020;-64
2023/04/01 13:31:57;;;;;;;0.52;0.40;;;14.10;87.00;;;;;;5045972;28;20025;-66
2023/04/01 13:34:47;;;;;;;0.43;0.40;;;14.20;86.90;;;;;;5046510;28;20025;-66
2023/04/01 13:37:25;;;;;;;0.13;0.10;;;14.20;86.60;;;;;;5043864;28;20517;-66